createdAt,value
2016-03-04T00:00:19.432Z,0
2016-03-04T00:01:19.372Z,0
2016-03-04T00:02:19.375Z,0
2016-03-04T00:03:19.363Z,0
2016-03-04T00:04:19.318Z,0
2016-03-04T00:05:19.273Z,0
2016-03-04T00:06:19.338Z,0
2016-03-04T00:07:19.248Z,0
2016-03-04T00:08:19.204Z,0
2016-03-04T00:09:19.175Z,0
2016-03-04T00:10:19.163Z,0
2016-03-04T00:11:19.149Z,0
2016-03-04T00:12:19.105Z,0
2016-03-04T00:13:19.076Z,0
2016-03-04T00:14:19.048Z,0
2016-03-04T00:15:19.020Z,0
2016-03-04T00:16:19.006Z,0
2016-03-04T00:17:18.993Z,0
2016-03-04T00:18:18.949Z,0
2016-03-04T00:19:18.951Z,0
2016-03-04T00:20:18.923Z,0
2016-03-04T00:21:18.895Z,0
2016-03-04T00:22:18.866Z,0
2016-03-04T00:23:18.837Z,0
2016-03-04T00:24:18.809Z,0
2016-03-04T00:25:18.765Z,0
2016-03-04T00:26:18.878Z,0
2016-03-04T00:27:18.738Z,0
2016-03-04T00:28:18.961Z,0
2016-03-04T00:29:18.682Z,0
2016-03-04T00:30:18.669Z,0
2016-03-04T00:31:18.645Z,0
2016-03-04T00:32:18.621Z,0
2016-03-04T00:33:18.780Z,0
2016-03-04T00:34:18.549Z,0
2016-03-04T00:35:18.536Z,0
2016-03-04T00:36:18.507Z,0
2016-03-04T00:37:18.494Z,0
2016-03-04T00:38:18.481Z,0
2016-03-04T00:39:18.454Z,0
2016-03-04T00:40:18.409Z,0
2016-03-04T00:41:18.396Z,0
2016-03-04T00:42:18.383Z,0
2016-03-04T00:43:18.339Z,0
2016-03-04T00:44:18.309Z,0
2016-03-04T00:45:18.328Z,0
2016-03-04T00:46:18.269Z,0
2016-03-04T00:47:18.240Z,0
2016-03-04T00:48:18.196Z,0
2016-03-04T00:49:18.339Z,0
2016-03-04T00:50:18.152Z,0
2016-03-04T00:51:18.170Z,0
2016-03-04T00:52:18.110Z,0
2016-03-04T00:53:18.098Z,0
2016-03-04T00:54:18.069Z,0
2016-03-04T00:55:18.057Z,0
2016-03-04T00:56:18.012Z,0
2016-03-04T00:57:18.015Z,0
2016-03-04T00:58:17.970Z,0
2016-03-04T00:59:17.958Z,0
2016-03-04T01:00:17.914Z,0
2016-03-04T01:01:17.901Z,0
2016-03-04T01:02:17.856Z,0
2016-03-04T01:03:17.828Z,0
2016-03-04T01:04:17.800Z,0
2016-03-04T01:05:17.786Z,0
2016-03-04T01:06:17.775Z,0
2016-03-04T01:07:17.761Z,0
2016-03-04T01:08:18.202Z,0
2016-03-04T01:09:17.688Z,0
2016-03-04T01:10:17.660Z,0
2016-03-04T01:11:17.647Z,0
2016-03-04T01:12:17.634Z,0
2016-03-04T01:13:17.605Z,0
2016-03-04T01:14:17.608Z,0
2016-03-04T01:15:17.549Z,0
2016-03-04T01:16:17.504Z,0
2016-03-04T01:17:17.507Z,0
2016-03-04T01:18:17.479Z,0
2016-03-04T01:19:17.574Z,0
2016-03-04T01:20:17.420Z,0
2016-03-04T01:21:17.393Z,0
2016-03-04T01:22:17.364Z,0
2016-03-04T01:23:17.367Z,0
2016-03-04T01:24:17.322Z,0
2016-03-04T01:25:17.293Z,0
2016-03-04T01:26:17.265Z,0
2016-03-04T01:27:17.268Z,0
2016-03-04T01:28:17.223Z,0
2016-03-04T01:29:17.211Z,0
2016-03-04T01:30:17.464Z,0
2016-03-04T01:31:17.138Z,0
2016-03-04T01:32:17.187Z,0
2016-03-04T01:33:17.081Z,0
2016-03-04T01:34:17.068Z,0
2016-03-04T01:35:17.195Z,0
2016-03-04T01:36:17.011Z,0
2016-03-04T01:37:16.997Z,0
2016-03-04T01:38:16.938Z,0
2016-03-04T01:39:16.955Z,0
2016-03-04T01:40:16.928Z,0
2016-03-04T01:41:16.883Z,0
2016-03-04T01:42:16.855Z,0
2016-03-04T01:43:16.841Z,0
2016-03-04T01:44:16.860Z,0
2016-03-04T01:45:16.801Z,0
2016-03-04T01:46:16.772Z,0
2016-03-04T01:47:16.744Z,0
2016-03-04T01:48:16.715Z,0
2016-03-04T01:49:16.687Z,0
2016-03-04T01:50:16.658Z,0
2016-03-04T01:51:16.660Z,0
2016-03-04T01:52:16.615Z,0
2016-03-04T01:53:16.604Z,0
2016-03-04T01:54:16.560Z,0
2016-03-04T01:55:16.546Z,0
2016-03-04T01:56:16.501Z,0
2016-03-04T01:57:16.504Z,0
2016-03-04T01:58:16.476Z,0
2016-03-04T01:59:16.541Z,0
2016-03-04T02:00:16.419Z,0
2016-03-04T02:01:16.406Z,0
2016-03-04T02:02:16.362Z,0
2016-03-04T02:03:16.349Z,0
2016-03-04T02:04:16.306Z,0
2016-03-04T02:05:16.511Z,0
2016-03-04T02:06:16.263Z,0
2016-03-04T02:07:16.266Z,0
2016-03-04T02:08:16.221Z,0
2016-03-04T02:09:16.193Z,0
2016-03-04T02:10:16.211Z,0
2016-03-04T02:11:16.135Z,0
2016-03-04T02:12:16.123Z,0
2016-03-04T02:13:16.126Z,0
2016-03-04T02:14:16.143Z,0
2016-03-04T02:15:16.037Z,0
2016-03-04T02:16:16.227Z,0
2016-03-04T02:17:15.996Z,0
2016-03-04T02:18:15.967Z,0
2016-03-04T02:19:15.938Z,0
2016-03-04T02:20:15.910Z,0
2016-03-04T02:21:15.928Z,0
2016-03-04T02:22:15.868Z,0
2016-03-04T02:23:15.855Z,0
2016-03-04T02:24:15.811Z,0
2016-03-04T02:25:15.783Z,0
2016-03-04T02:26:15.770Z,0
2016-03-04T02:27:16.027Z,0
2016-03-04T02:28:15.717Z,0
2016-03-04T02:29:15.735Z,0
2016-03-04T02:30:15.660Z,0
2016-03-04T02:31:15.663Z,0
2016-03-04T02:32:15.463Z,0
2016-03-04T02:33:15.590Z,0
2016-03-04T02:34:15.577Z,0
2016-03-04T02:35:15.533Z,0
2016-03-04T02:36:15.552Z,0
2016-03-04T02:37:15.507Z,0
2016-03-04T02:38:15.479Z,0
2016-03-04T02:39:15.449Z,0
2016-03-04T02:40:15.437Z,0
2016-03-04T02:41:15.393Z,0
2016-03-04T02:42:15.395Z,0
2016-03-04T02:43:15.351Z,0
2016-03-04T02:44:15.370Z,0
2016-03-04T02:45:15.309Z,0
2016-03-04T02:46:15.281Z,0
2016-03-04T02:47:15.315Z,0
2016-03-04T02:48:15.239Z,0
2016-03-04T02:49:15.211Z,0
2016-03-04T02:50:15.167Z,0
2016-03-04T02:51:15.170Z,0
2016-03-04T02:52:15.109Z,0
2016-03-04T02:53:15.081Z,0
2016-03-04T02:54:15.083Z,0
2016-03-04T02:55:15.055Z,0
2016-03-04T02:56:15.027Z,0
2016-03-04T02:57:14.998Z,0
2016-03-04T02:58:14.970Z,0
2016-03-04T02:59:14.816Z,0
2016-03-04T03:00:14.913Z,0
2016-03-04T03:01:14.900Z,0
2016-03-04T03:02:14.887Z,0
2016-03-04T03:03:14.827Z,0
2016-03-04T03:04:14.799Z,0
2016-03-04T03:05:14.785Z,0
2016-03-04T03:06:14.757Z,0
2016-03-04T03:07:14.743Z,0
2016-03-04T03:08:14.731Z,0
2016-03-04T03:09:14.546Z,0
2016-03-04T03:10:14.658Z,0
2016-03-04T03:11:14.646Z,0
2016-03-04T03:12:14.617Z,0
2016-03-04T03:13:15.353Z,0
2016-03-04T03:14:14.653Z,0
2016-03-04T03:15:14.547Z,0
2016-03-04T03:16:14.534Z,0
2016-03-04T03:17:14.489Z,0
2016-03-04T03:18:14.539Z,0
2016-03-04T03:19:14.432Z,0
2016-03-04T03:20:14.419Z,0
2016-03-04T03:21:14.391Z,0
2016-03-04T03:22:14.394Z,0
2016-03-04T03:23:14.334Z,0
2016-03-04T03:24:14.320Z,0
2016-03-04T03:25:14.292Z,0
2016-03-04T03:26:14.263Z,0
2016-03-04T03:27:14.094Z,0
2016-03-04T03:28:14.207Z,0
2016-03-04T03:29:14.381Z,0
2016-03-04T03:30:14.166Z,0
2016-03-04T03:31:14.152Z,0
2016-03-04T03:32:14.108Z,0
2016-03-04T03:33:14.141Z,0
2016-03-04T03:34:14.051Z,0
2016-03-04T03:35:14.054Z,0
2016-03-04T03:36:14.025Z,0
2016-03-04T03:37:13.980Z,0
2016-03-04T03:38:13.983Z,0
2016-03-04T03:39:13.939Z,0
2016-03-04T03:40:13.926Z,0
2016-03-04T03:41:13.883Z,0
2016-03-04T03:42:13.869Z,0
2016-03-04T03:43:13.826Z,0
2016-03-04T03:44:13.828Z,0
2016-03-04T03:45:13.799Z,0
2016-03-04T03:46:13.754Z,0
2016-03-04T03:47:13.742Z,0
2016-03-04T03:48:13.714Z,0
2016-03-04T03:49:13.701Z,0
2016-03-04T03:50:13.641Z,0
2016-03-04T03:51:13.659Z,0
2016-03-04T03:52:13.630Z,0
2016-03-04T03:53:13.602Z,0
2016-03-04T03:54:13.574Z,0
2016-03-04T03:55:13.544Z,0
2016-03-04T03:56:13.531Z,0
2016-03-04T03:57:13.503Z,0
2016-03-04T03:58:13.459Z,0
2016-03-04T03:59:13.446Z,0
2016-03-04T04:00:13.417Z,0
2016-03-04T04:01:13.389Z,0
2016-03-04T04:02:13.360Z,0
2016-03-04T04:03:13.347Z,0
2016-03-04T04:04:13.319Z,0
2016-03-04T04:05:13.305Z,0
2016-03-04T04:06:13.277Z,0
2016-03-04T04:07:13.233Z,0
2016-03-04T04:08:13.205Z,0
2016-03-04T04:09:13.192Z,0
2016-03-04T04:10:13.210Z,0
2016-03-04T04:11:13.135Z,0
2016-03-04T04:12:13.137Z,0
2016-03-04T04:13:13.093Z,0
2016-03-04T04:14:13.095Z,0
2016-03-04T04:15:13.287Z,0
2016-03-04T04:16:13.008Z,0
2016-03-04T04:17:13.010Z,0
2016-03-04T04:18:13.013Z,0
2016-03-04T04:19:12.968Z,0
2016-03-04T04:20:13.003Z,0
2016-03-04T04:21:12.911Z,0
2016-03-04T04:22:12.884Z,0
2016-03-04T04:23:12.870Z,0
2016-03-04T04:24:12.811Z,0
2016-03-04T04:25:12.781Z,0
2016-03-04T04:26:12.784Z,0
2016-03-04T04:27:12.739Z,0
2016-03-04T04:28:12.712Z,0
2016-03-04T04:29:12.684Z,0
2016-03-04T04:30:12.655Z,0
2016-03-04T04:31:12.641Z,0
2016-03-04T04:32:12.628Z,0
2016-03-04T04:33:12.616Z,0
2016-03-04T04:34:12.555Z,0
2016-03-04T04:35:12.543Z,0
2016-03-04T04:36:12.514Z,0
2016-03-04T04:37:12.502Z,0
2016-03-04T04:38:12.504Z,0
2016-03-04T04:39:12.444Z,0
2016-03-04T04:40:12.415Z,0
2016-03-04T04:41:12.387Z,0
2016-03-04T04:42:12.374Z,0
2016-03-04T04:43:12.329Z,0
2016-03-04T04:44:12.302Z,0
2016-03-04T04:45:12.273Z,0
2016-03-04T04:46:12.260Z,0
2016-03-04T04:47:12.231Z,0
2016-03-04T04:48:12.204Z,0
2016-03-04T04:49:12.190Z,0
2016-03-04T04:50:12.162Z,0
2016-03-04T04:51:12.133Z,0
2016-03-04T04:52:12.104Z,0
2016-03-04T04:53:12.107Z,0
2016-03-04T04:54:12.275Z,0
2016-03-04T04:55:11.892Z,0
2016-03-04T04:56:14.083Z,0
2016-03-04T04:57:12.039Z,0
2016-03-04T04:58:11.948Z,0
2016-03-04T04:59:11.951Z,0
2016-03-04T05:00:11.937Z,0
2016-03-04T05:01:11.893Z,0
2016-03-04T05:02:11.879Z,0
2016-03-04T05:03:11.836Z,0
2016-03-04T05:04:11.808Z,0
2016-03-04T05:05:11.779Z,0
2016-03-04T05:06:11.845Z,0
2016-03-04T05:07:11.753Z,0
2016-03-04T05:08:11.693Z,0
2016-03-04T05:09:11.696Z,0
2016-03-04T05:10:11.652Z,0
2016-03-04T05:11:11.623Z,0
2016-03-04T05:12:11.595Z,0
2016-03-04T05:13:11.581Z,0
2016-03-04T05:14:11.553Z,0
2016-03-04T05:15:11.524Z,0
2016-03-04T05:16:11.497Z,0
2016-03-04T05:17:11.640Z,0
2016-03-04T05:18:11.455Z,0
2016-03-04T05:19:11.458Z,0
2016-03-04T05:20:11.397Z,0
2016-03-04T05:21:11.385Z,0
2016-03-04T05:22:11.356Z,0
2016-03-04T05:23:11.328Z,0
2016-03-04T05:24:11.174Z,0
2016-03-04T05:25:11.302Z,0
2016-03-04T05:26:11.288Z,0
2016-03-04T05:27:11.213Z,0
2016-03-04T05:28:11.231Z,0
2016-03-04T05:29:11.188Z,0
2016-03-04T05:30:11.191Z,0
2016-03-04T05:31:11.162Z,0
2016-03-04T05:32:11.102Z,0
2016-03-04T05:33:11.073Z,0
2016-03-04T05:34:11.060Z,0
2016-03-04T05:35:11.032Z,0
2016-03-04T05:36:11.034Z,0
2016-03-04T05:37:10.990Z,0
2016-03-04T05:38:10.946Z,0
2016-03-04T05:39:10.933Z,0
2016-03-04T05:40:10.904Z,0
2016-03-04T05:41:10.891Z,0
2016-03-04T05:42:10.848Z,0
2016-03-04T05:43:10.835Z,0
2016-03-04T05:44:10.790Z,0
2016-03-04T05:45:10.778Z,0
2016-03-04T05:46:10.733Z,0
2016-03-04T05:47:10.720Z,0
2016-03-04T05:48:10.707Z,0
2016-03-04T05:49:10.694Z,4
2016-03-04T05:50:10.666Z,4
2016-03-04T05:51:10.622Z,4
2016-03-04T05:52:10.608Z,4
2016-03-04T05:53:10.580Z,4
2016-03-04T05:54:10.535Z,8
2016-03-04T05:55:10.539Z,4
2016-03-04T05:56:10.494Z,8
2016-03-04T05:57:11.403Z,12
2016-03-04T05:58:10.438Z,8
2016-03-04T05:59:10.283Z,8
2016-03-04T06:00:10.411Z,16
2016-03-04T06:01:10.413Z,16
2016-03-04T06:02:10.338Z,16
2016-03-04T06:03:10.341Z,20
2016-03-04T06:04:10.282Z,24
2016-03-04T06:05:10.285Z,28
2016-03-04T06:06:10.240Z,28
2016-03-04T06:07:10.259Z,28
2016-03-04T06:08:10.039Z,32
2016-03-04T06:09:10.342Z,32
2016-03-04T06:10:10.114Z,36
2016-03-04T06:11:10.088Z,40
2016-03-04T06:12:10.047Z,48
2016-03-04T06:13:10.241Z,48
2016-03-04T06:14:10.004Z,52
2016-03-04T06:15:09.690Z,60
2016-03-04T06:16:09.939Z,72
2016-03-04T06:17:09.890Z,76
2016-03-04T06:18:09.858Z,84
2016-03-04T06:19:09.859Z,92
2016-03-04T06:20:10.079Z,104
2016-03-04T06:21:09.798Z,112
2016-03-04T06:22:09.737Z,124
2016-03-04T06:23:09.753Z,140
2016-03-04T06:24:09.724Z,152
2016-03-04T06:25:09.664Z,164
2016-03-04T06:26:09.728Z,180
2016-03-04T06:27:09.668Z,192
2016-03-04T06:28:09.623Z,204
2016-03-04T06:29:09.579Z,216
2016-03-04T06:30:09.410Z,228
2016-03-04T06:31:09.554Z,240
2016-03-04T06:32:09.509Z,256
2016-03-04T06:33:09.465Z,268
2016-03-04T06:34:09.451Z,280
2016-03-04T06:35:09.423Z,292
2016-03-04T06:36:09.426Z,308
2016-03-04T06:37:09.367Z,320
2016-03-04T06:38:09.353Z,332
2016-03-04T06:39:09.309Z,348
2016-03-04T06:40:09.296Z,364
2016-03-04T06:41:09.267Z,380
2016-03-04T06:42:09.239Z,392
2016-03-04T06:43:09.226Z,400
2016-03-04T06:44:09.182Z,404
2016-03-04T06:45:09.028Z,412
2016-03-04T06:46:09.187Z,420
2016-03-04T06:47:09.111Z,428
2016-03-04T06:48:09.083Z,440
2016-03-04T06:49:09.085Z,448
2016-03-04T06:50:09.042Z,456
2016-03-04T06:51:09.045Z,468
2016-03-04T06:52:09.000Z,476
2016-03-04T06:53:08.972Z,488
2016-03-04T06:54:08.974Z,496
2016-03-04T06:55:08.915Z,504
2016-03-04T06:56:08.918Z,516
2016-03-04T06:57:08.857Z,520
2016-03-04T06:58:08.876Z,532
2016-03-04T06:59:08.816Z,532
2016-03-04T07:00:08.803Z,536
2016-03-04T07:01:08.993Z,540
2016-03-04T07:02:08.729Z,544
2016-03-04T07:03:08.718Z,548
2016-03-04T07:04:08.689Z,556
2016-03-04T07:05:08.660Z,564
2016-03-04T07:06:08.726Z,568
2016-03-04T07:07:08.635Z,572
2016-03-04T07:08:08.621Z,576
2016-03-04T07:09:08.561Z,580
2016-03-04T07:10:08.580Z,580
2016-03-04T07:11:08.520Z,584
2016-03-04T07:12:08.492Z,584
2016-03-04T07:13:08.479Z,584
2016-03-04T07:14:08.435Z,572
2016-03-04T07:15:08.453Z,568
2016-03-04T07:16:08.408Z,568
2016-03-04T07:17:08.630Z,568
2016-03-04T07:18:08.367Z,572
2016-03-04T07:19:07.604Z,572
2016-03-04T07:20:08.310Z,580
2016-03-04T07:21:08.281Z,584
2016-03-04T07:22:08.269Z,588
2016-03-04T07:23:08.224Z,596
2016-03-04T07:24:08.211Z,604
2016-03-04T07:25:08.214Z,620
2016-03-04T07:26:08.154Z,648
2016-03-04T07:27:08.172Z,676
2016-03-04T07:28:08.096Z,704
2016-03-04T07:29:08.084Z,720
2016-03-04T07:30:08.040Z,724
2016-03-04T07:31:08.026Z,716
2016-03-04T07:32:07.999Z,712
2016-03-04T07:33:07.985Z,704
2016-03-04T07:34:07.941Z,688
2016-03-04T07:35:07.944Z,664
2016-03-04T07:36:07.900Z,632
2016-03-04T07:37:08.106Z,604
2016-03-04T07:38:07.842Z,588
2016-03-04T07:39:07.830Z,588
2016-03-04T07:40:07.801Z,596
2016-03-04T07:41:07.773Z,608
2016-03-04T07:42:07.744Z,624
2016-03-04T07:43:07.715Z,648
2016-03-04T07:44:07.703Z,672
2016-03-04T07:45:07.689Z,688
2016-03-04T07:46:07.646Z,700
2016-03-04T07:47:07.633Z,696
2016-03-04T07:48:07.603Z,684
2016-03-04T07:49:07.575Z,664
2016-03-04T07:50:07.563Z,648
2016-03-04T07:51:07.518Z,648
2016-03-04T07:52:07.505Z,660
2016-03-04T07:53:07.476Z,676
2016-03-04T07:54:07.464Z,688
2016-03-04T07:55:07.435Z,708
2016-03-04T07:56:07.391Z,732
2016-03-04T07:57:07.378Z,756
2016-03-04T07:58:07.630Z,772
2016-03-04T07:59:07.368Z,772
2016-03-04T08:00:07.308Z,776
2016-03-04T08:01:07.296Z,776
2016-03-04T08:02:07.298Z,792
2016-03-04T08:03:07.425Z,824
2016-03-04T08:04:07.241Z,868
2016-03-04T08:05:07.181Z,912
2016-03-04T08:06:07.152Z,948
2016-03-04T08:07:07.124Z,972
2016-03-04T08:08:07.111Z,996
2016-03-04T08:09:07.082Z,1008
2016-03-04T08:10:06.912Z,1012
2016-03-04T08:11:07.057Z,1000
2016-03-04T08:12:06.997Z,976
2016-03-04T08:13:07.014Z,944
2016-03-04T08:14:06.955Z,928
2016-03-04T08:15:06.942Z,912
2016-03-04T08:16:06.914Z,892
2016-03-04T08:17:06.886Z,852
2016-03-04T08:18:06.857Z,820
2016-03-04T08:19:06.828Z,820
2016-03-04T08:20:06.830Z,848
2016-03-04T08:21:06.849Z,892
2016-03-04T08:22:06.742Z,932
2016-03-04T08:23:06.777Z,964
2016-03-04T08:24:06.700Z,996
2016-03-04T08:25:06.719Z,1028
2016-03-04T08:26:06.659Z,1064
2016-03-04T08:27:06.630Z,1108
2016-03-04T08:28:06.618Z,1160
2016-03-04T08:29:06.589Z,1200
2016-03-04T08:30:06.560Z,1228
2016-03-04T08:31:06.563Z,1248
2016-03-04T08:32:06.519Z,1280
2016-03-04T08:33:06.474Z,1328
2016-03-04T08:34:06.493Z,1372
2016-03-04T08:35:06.449Z,1396
2016-03-04T08:36:06.404Z,1412
2016-03-04T08:37:06.407Z,1416
2016-03-04T08:38:06.363Z,1404
2016-03-04T08:39:06.335Z,1404
2016-03-04T08:40:06.306Z,1424
2016-03-04T08:41:06.278Z,1460
2016-03-04T08:42:06.281Z,1476
2016-03-04T08:43:06.236Z,1464
2016-03-04T08:44:06.239Z,1448
2016-03-04T08:45:06.179Z,1448
2016-03-04T08:46:06.150Z,1468
2016-03-04T08:47:06.137Z,1472
2016-03-04T08:48:06.109Z,1432
2016-03-04T08:49:06.097Z,1336
2016-03-04T08:50:06.067Z,1252
2016-03-04T08:51:06.055Z,1248
2016-03-04T08:52:06.026Z,1272
2016-03-04T08:53:05.982Z,1268
2016-03-04T08:54:05.827Z,1220
2016-03-04T08:55:05.956Z,1164
2016-03-04T08:56:05.927Z,1144
2016-03-04T08:57:05.899Z,1168
2016-03-04T08:58:05.886Z,1196
2016-03-04T08:59:05.841Z,1208
2016-03-04T09:00:06.094Z,1164
2016-03-04T09:01:05.800Z,1040
2016-03-04T09:02:05.787Z,984
2016-03-04T09:03:05.743Z,992
2016-03-04T09:04:05.729Z,992
2016-03-04T09:05:05.765Z,980
2016-03-04T09:06:05.674Z,980
2016-03-04T09:07:05.661Z,992
2016-03-04T09:08:05.633Z,1024
2016-03-04T09:09:05.635Z,1064
2016-03-04T09:10:05.591Z,1096
2016-03-04T09:11:05.563Z,1128
2016-03-04T09:12:05.518Z,1152
2016-03-04T09:13:05.506Z,1176
2016-03-04T09:14:05.477Z,1236
2016-03-04T09:15:05.480Z,1328
2016-03-04T09:16:05.451Z,1368
2016-03-04T09:17:05.407Z,1424
2016-03-04T09:18:05.378Z,1484
2016-03-04T09:19:05.349Z,1500
2016-03-04T09:20:05.336Z,1528
2016-03-04T09:21:05.308Z,1604
2016-03-04T09:22:05.310Z,1620
2016-03-04T09:23:05.251Z,1616
2016-03-04T09:24:05.223Z,1780
2016-03-04T09:25:05.240Z,1832
2016-03-04T09:26:05.165Z,1776
2016-03-04T09:27:05.168Z,1720
2016-03-04T09:28:05.123Z,1660
2016-03-04T09:29:05.126Z,1664
2016-03-04T09:30:05.082Z,1696
2016-03-04T09:31:05.116Z,1640
2016-03-04T09:32:05.057Z,1504
2016-03-04T09:33:04.997Z,1364
2016-03-04T09:34:04.983Z,1324
2016-03-04T09:35:04.955Z,1400
2016-03-04T09:36:04.942Z,1428
2016-03-04T09:37:04.945Z,1496
2016-03-04T09:38:04.900Z,1660
2016-03-04T09:39:04.903Z,1788
2016-03-04T09:40:04.844Z,1816
2016-03-04T09:41:04.816Z,1788
2016-03-04T09:42:04.802Z,1848
2016-03-04T09:43:04.758Z,1884
2016-03-04T09:44:04.791Z,1764
2016-03-04T09:45:04.716Z,1672
2016-03-04T09:46:04.766Z,1596
2016-03-04T09:47:04.659Z,1512
2016-03-04T09:48:04.677Z,1580
2016-03-04T09:49:04.649Z,1568
2016-03-04T09:50:04.590Z,1528
2016-03-04T09:51:04.655Z,1616
2016-03-04T09:52:04.563Z,1716
2016-03-04T09:53:04.518Z,1648
2016-03-04T09:54:04.507Z,1560
2016-03-04T09:55:04.478Z,1496
2016-03-04T09:56:04.448Z,1468
2016-03-04T09:57:04.421Z,1436
2016-03-04T09:58:04.407Z,1380
2016-03-04T09:59:04.379Z,1312
2016-03-04T10:00:04.367Z,1336
2016-03-04T10:01:04.384Z,1356
2016-03-04T10:02:04.543Z,1404
2016-03-04T10:03:04.281Z,1472
2016-03-04T10:04:04.252Z,1528
2016-03-04T10:05:04.254Z,1520
2016-03-04T10:06:04.226Z,1520
2016-03-04T10:07:04.197Z,1480
2016-03-04T10:08:04.153Z,1416
2016-03-04T10:09:04.141Z,1344
2016-03-04T10:10:04.127Z,1276
2016-03-04T10:11:04.083Z,1224
2016-03-04T10:12:04.055Z,1160
2016-03-04T10:13:04.026Z,1120
2016-03-04T10:14:03.997Z,1032
2016-03-04T10:15:04.000Z,1056
2016-03-04T10:16:04.440Z,1012
2016-03-04T10:17:03.944Z,936
2016-03-04T10:18:03.915Z,912
2016-03-04T10:19:03.885Z,832
2016-03-04T10:20:03.874Z,808
2016-03-04T10:21:03.860Z,864
2016-03-04T10:22:03.815Z,1056
2016-03-04T10:23:03.788Z,1248
2016-03-04T10:24:03.774Z,1296
2016-03-04T10:25:03.777Z,1304
2016-03-04T10:26:03.748Z,1240
2016-03-04T10:27:03.689Z,1128
2016-03-04T10:28:03.676Z,1060
2016-03-04T10:29:03.694Z,1076
2016-03-04T10:30:03.618Z,1104
2016-03-04T10:31:03.605Z,1132
2016-03-04T10:32:03.578Z,1108
2016-03-04T10:33:03.564Z,1096
2016-03-04T10:34:03.520Z,1112
2016-03-04T10:35:03.492Z,1144
2016-03-04T10:36:03.478Z,1048
2016-03-04T10:37:03.450Z,1004
2016-03-04T10:38:03.437Z,1048
2016-03-04T10:39:03.892Z,1080
2016-03-04T10:40:03.380Z,1136
2016-03-04T10:41:03.352Z,1144
2016-03-04T10:42:03.338Z,1160
2016-03-04T10:43:03.310Z,1176
2016-03-04T10:44:03.265Z,1116
2016-03-04T10:45:03.238Z,1092
2016-03-04T10:46:03.224Z,1128
2016-03-04T10:47:03.195Z,1220
2016-03-04T10:48:03.230Z,1280
2016-03-04T10:49:03.154Z,1304
2016-03-04T10:50:02.985Z,1272
2016-03-04T10:51:03.113Z,1260
2016-03-04T10:52:03.085Z,1240
2016-03-04T10:53:03.055Z,1276
2016-03-04T10:54:03.027Z,1280
2016-03-04T10:55:03.029Z,1256
2016-03-04T10:56:02.985Z,1276
2016-03-04T10:57:02.957Z,1196
2016-03-04T10:58:02.929Z,1148
2016-03-04T10:59:03.134Z,1148
2016-03-04T11:00:02.886Z,1176
2016-03-04T11:01:02.874Z,1200
2016-03-04T11:02:02.829Z,1192
2016-03-04T11:03:02.847Z,1164
2016-03-04T11:04:02.867Z,1088
2016-03-04T11:05:02.792Z,1060
2016-03-04T11:06:02.762Z,1040
2016-03-04T11:07:02.733Z,1032
2016-03-04T11:08:02.690Z,1036
2016-03-04T11:09:02.692Z,1044
2016-03-04T11:10:02.632Z,1116
2016-03-04T11:11:02.651Z,1136
2016-03-04T11:12:02.669Z,1124
2016-03-04T11:13:02.578Z,1072
2016-03-04T11:14:02.566Z,960
2016-03-04T11:15:02.536Z,924
2016-03-04T11:16:02.508Z,936
2016-03-04T11:17:02.463Z,936
2016-03-04T11:18:02.451Z,944
2016-03-04T11:19:02.438Z,964
2016-03-04T11:20:02.393Z,988
2016-03-04T11:21:02.381Z,1000
2016-03-04T11:22:02.352Z,1004
2016-03-04T11:23:02.354Z,968
2016-03-04T11:24:02.343Z,944
2016-03-04T11:25:02.282Z,916
2016-03-04T11:26:02.098Z,896
2016-03-04T11:27:02.225Z,884
2016-03-04T11:28:02.229Z,868
2016-03-04T11:29:02.199Z,892
2016-03-04T11:30:01.998Z,928
2016-03-04T11:31:02.142Z,1008
2016-03-04T11:32:02.145Z,968
2016-03-04T11:33:02.069Z,888
2016-03-04T11:34:02.072Z,836
2016-03-04T11:35:02.043Z,872
2016-03-04T11:36:01.843Z,872
2016-03-04T11:37:01.986Z,892
2016-03-04T11:38:01.958Z,888
2016-03-04T11:39:01.976Z,856
2016-03-04T11:40:01.900Z,888
2016-03-04T11:41:01.903Z,904
2016-03-04T11:42:01.875Z,916
2016-03-04T11:43:01.862Z,964
2016-03-04T11:44:01.817Z,988
2016-03-04T11:45:01.898Z,964
2016-03-04T11:46:01.761Z,940
2016-03-04T11:47:01.732Z,956
2016-03-04T11:48:01.735Z,932
2016-03-04T11:49:01.691Z,884
2016-03-04T11:50:01.678Z,912
2016-03-04T11:51:01.633Z,948
2016-03-04T11:52:01.620Z,992
2016-03-04T11:53:01.592Z,984
2016-03-04T11:54:01.594Z,984
2016-03-04T11:55:01.565Z,984
2016-03-04T11:56:01.521Z,1000
2016-03-04T11:57:01.493Z,904
2016-03-04T11:58:01.480Z,936
2016-03-04T11:59:01.451Z,984
2016-03-04T12:00:01.423Z,908
2016-03-04T12:01:01.629Z,852
2016-03-04T12:02:01.350Z,916
2016-03-04T12:03:01.353Z,968
2016-03-04T12:04:01.325Z,892
2016-03-04T12:05:01.296Z,848
2016-03-04T12:06:01.298Z,892
2016-03-04T12:07:01.239Z,868
2016-03-04T12:08:01.241Z,828
2016-03-04T12:09:01.197Z,832
2016-03-04T12:10:01.247Z,804
2016-03-04T12:11:01.172Z,816
2016-03-04T12:12:01.142Z,824
2016-03-04T12:13:01.114Z,760
2016-03-04T12:14:01.070Z,768
2016-03-04T12:15:01.088Z,728
2016-03-04T12:16:01.028Z,776
2016-03-04T12:17:01.000Z,780
2016-03-04T12:18:01.003Z,728
2016-03-04T12:19:00.974Z,712
2016-03-04T12:20:00.930Z,664
2016-03-04T12:21:00.933Z,580
2016-03-04T12:22:00.888Z,608
2016-03-04T12:23:00.891Z,620
2016-03-04T12:24:00.831Z,636
2016-03-04T12:25:00.788Z,652
2016-03-04T12:26:00.805Z,676
2016-03-04T12:27:00.761Z,644
2016-03-04T12:28:00.749Z,636
2016-03-04T12:29:00.751Z,588
2016-03-04T12:30:00.707Z,592
2016-03-04T12:31:00.662Z,560
2016-03-04T12:32:00.651Z,584
2016-03-04T12:33:00.606Z,584
2016-03-04T12:34:00.592Z,572
2016-03-04T12:35:00.580Z,580
2016-03-04T12:36:00.535Z,580
2016-03-04T12:37:00.507Z,648
2016-03-04T12:38:00.494Z,696
2016-03-04T12:39:00.465Z,732
2016-03-04T12:40:00.453Z,712
2016-03-04T12:41:00.424Z,664
2016-03-04T12:42:00.223Z,600
2016-03-04T12:43:00.366Z,576
2016-03-04T12:44:00.339Z,568
2016-03-04T12:45:00.310Z,584
2016-03-04T12:46:00.297Z,596
2016-03-04T12:47:00.424Z,584
2016-03-04T12:48:00.568Z,568
2016-03-04T12:49:00.211Z,588
2016-03-04T12:50:00.182Z,596
2016-03-04T12:51:00.154Z,600
2016-03-04T12:52:00.172Z,588
2016-03-04T12:53:00.144Z,596
2016-03-04T12:54:00.115Z,588
2016-03-04T12:55:00.071Z,560
2016-03-04T12:56:00.058Z,540
2016-03-04T12:57:00.060Z,532
2016-03-04T12:58:00.016Z,512
2016-03-04T12:58:59.973Z,504
2016-03-04T12:59:59.976Z,508
2016-03-04T13:00:59.962Z,540
2016-03-04T13:01:59.902Z,576
2016-03-04T13:02:59.873Z,584
2016-03-04T13:03:59.845Z,592
2016-03-04T13:04:59.848Z,544
2016-03-04T13:05:59.804Z,492
2016-03-04T13:06:59.775Z,464
2016-03-04T13:07:59.731Z,424
2016-03-04T13:08:59.750Z,432
2016-03-04T13:09:59.705Z,436
2016-03-04T13:10:59.661Z,448
2016-03-04T13:11:59.648Z,452
2016-03-04T13:12:59.620Z,472
2016-03-04T13:13:59.622Z,452
2016-03-04T13:14:59.593Z,432
2016-03-04T13:16:00.096Z,404
2016-03-04T13:16:59.521Z,376
2016-03-04T13:17:59.508Z,360
2016-03-04T13:18:59.494Z,380
2016-03-04T13:19:59.451Z,404
2016-03-04T13:20:59.469Z,416
2016-03-04T13:21:59.410Z,408
2016-03-04T13:22:59.396Z,360
2016-03-04T13:23:59.336Z,372
2016-03-04T13:24:59.293Z,376
2016-03-04T13:25:59.311Z,364
2016-03-04T13:26:59.282Z,348
2016-03-04T13:27:59.237Z,336
2016-03-04T13:28:59.210Z,344
2016-03-04T13:29:59.212Z,356
2016-03-04T13:30:59.214Z,360
2016-03-04T13:31:59.139Z,344
2016-03-04T13:32:59.158Z,340
2016-03-04T13:33:59.098Z,312
2016-03-04T13:34:59.069Z,320
2016-03-04T13:35:59.073Z,328
2016-03-04T13:36:59.028Z,368
2016-03-04T13:37:59.062Z,396
2016-03-04T13:38:58.970Z,432
2016-03-04T13:39:58.973Z,484
2016-03-04T13:40:58.945Z,512
2016-03-04T13:41:58.900Z,484
2016-03-04T13:42:58.903Z,508
2016-03-04T13:43:59.093Z,416
2016-03-04T13:44:58.862Z,536
2016-03-04T13:45:58.802Z,556
2016-03-04T13:46:58.789Z,480
2016-03-04T13:47:58.775Z,492
2016-03-04T13:48:58.873Z,500
2016-03-04T13:49:58.735Z,484
2016-03-04T13:50:58.705Z,464
2016-03-04T13:51:58.708Z,396
2016-03-04T13:52:58.664Z,384
2016-03-04T13:53:58.605Z,392
2016-03-04T13:54:58.623Z,404
2016-03-04T13:55:58.579Z,432
2016-03-04T13:56:58.535Z,460
2016-03-04T13:57:58.491Z,412
2016-03-04T13:58:58.462Z,452
2016-03-04T13:59:58.449Z,480
2016-03-04T14:00:58.436Z,472
2016-03-04T14:01:58.454Z,528
2016-03-04T14:02:58.410Z,564
2016-03-04T14:03:58.350Z,596
2016-03-04T14:04:58.337Z,588